createdAt,value
2022-08-28T00:00:59.480Z,82.30
2022-08-28T00:03:26.344Z,82.73
2022-08-28T00:05:53.551Z,81.35
2022-08-28T00:08:20.933Z,84.30
2022-08-28T00:10:48.319Z,88.88
2022-08-28T00:13:18.839Z,87.95
2022-08-28T00:15:48.749Z,84.20
2022-08-28T00:18:16.582Z,93.93
2022-08-28T00:20:44.374Z,76.03
2022-08-28T00:23:11.219Z,97.87
2022-08-28T00:25:38.298Z,91.45
2022-08-28T00:28:08.719Z,90.90
2022-08-28T00:30:41.509Z,92.90
2022-08-28T00:33:13.676Z,98.13
2022-08-28T00:35:42.191Z,80.00
2022-08-28T00:38:10.889Z,94.10
2022-08-28T00:40:39.496Z,94.15
2022-08-28T00:43:08.834Z,74.88
2022-08-28T00:45:39.806Z,72.75
2022-08-28T00:48:07.689Z,63.65
2022-08-28T00:51:00.589Z,62.92
2022-08-28T00:53:32.725Z,74.10
2022-08-28T00:56:09.489Z,64.35
2022-08-28T00:58:42.006Z,76.35
2022-08-28T01:01:09.183Z,77.93
2022-08-28T01:03:36.635Z,83.53
2022-08-28T01:06:04.399Z,81.65
2022-08-28T01:08:31.294Z,74.25
2022-08-28T01:11:01.495Z,76.07
2022-08-28T01:13:29.499Z,76.47
2022-08-28T01:15:58.076Z,77.43
2022-08-28T01:18:27.545Z,98.05
2022-08-28T01:21:20.522Z,75.20
2022-08-28T01:23:51.486Z,83.50
2022-08-28T01:26:19.832Z,77.95
2022-08-28T01:28:47.439Z,72.80
2022-08-28T01:31:15.746Z,69.47
2022-08-28T01:33:43.746Z,70.20
2022-08-28T01:36:12.506Z,71.70
2022-08-28T01:38:41.201Z,75.22
2022-08-28T01:41:08.353Z,68.60
2022-08-28T01:43:35.527Z,80.17
2022-08-28T01:46:04.701Z,85.55
2022-08-28T01:48:35.958Z,93.10
2022-08-28T01:51:04.039Z,82.40
2022-08-28T01:53:32.972Z,94.10
2022-08-28T01:56:02.795Z,72.50
2022-08-28T01:58:36.042Z,90.38
2022-08-28T02:01:25.600Z,91.53
2022-08-28T02:03:55.577Z,74.80
2022-08-28T02:06:22.504Z,88.90
2022-08-28T02:08:54.551Z,94.07
2022-08-28T02:11:24.421Z,84.60
2022-08-28T02:13:52.875Z,90.53
2022-08-28T02:16:21.765Z,85.38
2022-08-28T02:18:48.955Z,83.28
2022-08-28T02:21:15.839Z,95.55
2022-08-28T02:23:43.854Z,88.97
2022-08-28T02:26:12.320Z,72.25
2022-08-28T02:28:40.153Z,68.93
2022-08-28T02:31:10.396Z,102.57
2022-08-28T02:33:39.606Z,89.97
2022-08-28T02:36:08.458Z,94.60
2022-08-28T02:38:36.455Z,111.82
2022-08-28T02:41:04.500Z,116.43
2022-08-28T02:43:31.927Z,112.40
2022-08-28T02:45:58.877Z,125.45
2022-08-28T02:48:33.702Z,125.90
2022-08-28T02:51:02.904Z,127.20
2022-08-28T02:53:30.361Z,143.00
2022-08-28T02:55:58.524Z,128.30
2022-08-28T02:58:27.223Z,141.75
2022-08-28T03:00:54.635Z,144.88
2022-08-28T03:03:21.495Z,142.38
2022-08-28T03:05:48.295Z,148.30
2022-08-28T03:08:15.104Z,157.38
2022-08-28T03:10:42.015Z,154.13
2022-08-28T03:13:08.899Z,148.85
2022-08-28T03:15:35.736Z,150.80
2022-08-28T03:18:02.603Z,163.55
2022-08-28T03:20:34.874Z,166.07
2022-08-28T03:23:20.415Z,157.65
2022-08-28T03:25:47.296Z,170.93
2022-08-28T03:28:14.130Z,172.25
2022-08-28T03:30:41.307Z,179.20
2022-08-28T03:33:08.131Z,179.45
2022-08-28T03:35:35.240Z,181.48
2022-08-28T03:38:01.996Z,180.70
2022-08-28T03:40:29.316Z,172.38
2022-08-28T03:42:56.303Z,181.88
2022-08-28T03:45:23.524Z,175.63
2022-08-28T03:47:51.019Z,161.07
2022-08-28T03:50:18.721Z,175.82
2022-08-28T03:52:47.413Z,174.43
2022-08-28T03:55:14.726Z,164.45
2022-08-28T03:57:41.653Z,184.15
2022-08-28T04:00:12.075Z,180.68
2022-08-28T04:02:40.334Z,188.20
2022-08-28T04:05:09.443Z,183.68
2022-08-28T04:07:37.231Z,186.20
2022-08-28T04:10:05.027Z,188.10
2022-08-28T04:12:35.223Z,185.70
2022-08-28T04:15:02.962Z,190.75
2022-08-28T04:17:30.110Z,202.00
2022-08-28T04:19:57.051Z,198.47
2022-08-28T04:22:23.956Z,183.85
2022-08-28T04:24:50.740Z,196.05
2022-08-28T04:27:17.656Z,190.25
2022-08-28T04:29:44.415Z,206.05
2022-08-28T04:32:11.556Z,179.05
2022-08-28T04:34:39.135Z,191.00
2022-08-28T04:37:06.479Z,165.55
2022-08-28T04:39:34.046Z,170.40
2022-08-28T04:42:00.970Z,178.55
2022-08-28T04:44:27.859Z,158.45
2022-08-28T04:46:54.699Z,155.07
2022-08-28T04:49:23.057Z,168.93
2022-08-28T04:51:52.774Z,175.18
2022-08-28T04:54:20.131Z,161.02
2022-08-28T04:56:46.946Z,178.40
2022-08-28T04:59:13.903Z,177.07
2022-08-28T05:01:42.499Z,169.45
2022-08-28T05:04:11.513Z,172.00
2022-08-28T05:06:45.997Z,183.30
2022-08-28T05:09:15.443Z,168.02
2022-08-28T05:11:42.788Z,189.93
2022-08-28T05:14:15.400Z,181.10
2022-08-28T05:16:46.033Z,206.57
2022-08-28T05:19:14.279Z,184.15
2022-08-28T05:21:41.245Z,189.75
2022-08-28T05:24:08.756Z,199.27
2022-08-28T05:26:40.003Z,166.65
2022-08-28T05:29:07.587Z,179.65
2022-08-28T05:31:35.061Z,194.20
2022-08-28T05:34:02.420Z,187.67
2022-08-28T05:36:33.230Z,201.05
2022-08-28T05:39:01.972Z,201.97
2022-08-28T05:41:30.709Z,202.40
2022-08-28T05:44:04.699Z,212.23
2022-08-28T05:46:32.022Z,197.52
2022-08-28T05:49:00.380Z,190.43
2022-08-28T05:51:28.415Z,212.35
2022-08-28T05:53:57.417Z,203.00
2022-08-28T05:56:29.732Z,204.70
2022-08-28T05:58:59.001Z,214.10
2022-08-28T06:01:29.155Z,227.73
2022-08-28T06:04:02.247Z,230.27
2022-08-28T06:06:34.105Z,201.18
2022-08-28T06:09:04.247Z,228.15
2022-08-28T06:11:31.776Z,208.77
2022-08-28T06:14:02.681Z,219.97
2022-08-28T06:16:31.754Z,220.00
2022-08-28T06:18:59.208Z,224.50
2022-08-28T06:21:26.236Z,237.73
2022-08-28T06:23:53.219Z,228.25
2022-08-28T06:26:20.390Z,236.90
2022-08-28T06:28:47.250Z,222.55
2022-08-28T06:31:24.390Z,239.13
2022-08-28T06:33:57.188Z,243.18
2022-08-28T06:36:27.441Z,240.35
2022-08-28T06:38:55.513Z,240.60
2022-08-28T06:41:22.264Z,217.93
2022-08-28T06:43:49.150Z,237.18
2022-08-28T06:46:18.507Z,235.63
2022-08-28T06:48:45.363Z,234.52
2022-08-28T06:51:13.358Z,227.38
2022-08-28T06:53:42.003Z,235.05
2022-08-28T06:56:26.500Z,235.55
2022-08-28T06:58:56.692Z,228.90
2022-08-28T07:01:29.041Z,225.93
2022-08-28T07:03:59.505Z,223.35
2022-08-28T07:06:27.250Z,228.63
2022-08-28T07:08:54.194Z,237.82
2022-08-28T07:11:26.510Z,244.90
2022-08-28T07:13:55.147Z,230.95
2022-08-28T07:16:25.477Z,237.30
2022-08-28T07:18:52.363Z,241.35
2022-08-28T07:21:20.578Z,202.25
2022-08-28T07:23:48.270Z,221.05
2022-08-28T07:26:23.214Z,238.77
2022-08-28T07:28:51.661Z,239.98
2022-08-28T07:31:22.014Z,238.68
2022-08-28T07:33:53.513Z,242.57
2022-08-28T07:36:29.636Z,246.38
2022-08-28T07:38:59.205Z,246.83
2022-08-28T07:41:29.768Z,241.80
2022-08-28T07:44:15.214Z,242.07
2022-08-28T07:46:42.228Z,248.32
2022-08-28T07:49:09.867Z,256.20
2022-08-28T07:51:37.417Z,252.30
2022-08-28T07:54:04.675Z,234.82
2022-08-28T07:56:31.688Z,231.70
2022-08-28T07:58:59.683Z,209.85
2022-08-28T08:01:28.714Z,221.93
2022-08-28T08:04:01.196Z,191.07
2022-08-28T08:06:33.901Z,210.50
2022-08-28T08:09:02.926Z,215.32
2022-08-28T08:11:32.481Z,200.43
2022-08-28T08:14:05.818Z,202.00
2022-08-28T08:16:38.935Z,230.10
2022-08-28T08:19:09.622Z,257.00
2022-08-28T08:21:37.122Z,245.93
2022-08-28T08:24:04.175Z,253.73
2022-08-28T08:26:31.084Z,257.23
2022-08-28T08:28:59.490Z,256.83
2022-08-28T08:31:29.758Z,275.50
2022-08-28T08:34:02.389Z,251.57
2022-08-28T08:36:31.162Z,273.65
2022-08-28T08:39:00.326Z,257.45
2022-08-28T08:41:31.802Z,263.73
2022-08-28T08:44:33.294Z,274.90
2022-08-28T08:47:19.424Z,241.02
2022-08-28T08:49:57.067Z,262.23
2022-08-28T08:52:41.955Z,234.93
2022-08-28T08:55:25.067Z,255.85
2022-08-28T08:58:00.911Z,247.57
2022-08-28T09:00:28.932Z,243.45
2022-08-28T09:03:06.466Z,252.77
2022-08-28T09:05:47.867Z,259.80
2022-08-28T09:08:33.888Z,254.40
2022-08-28T09:11:12.790Z,266.45
2022-08-28T09:14:02.722Z,263.00
2022-08-28T09:16:37.811Z,263.90
2022-08-28T09:19:06.138Z,256.27
2022-08-28T09:21:38.688Z,253.02
2022-08-28T09:24:11.786Z,239.40
2022-08-28T09:26:40.425Z,251.80
2022-08-28T09:29:16.474Z,241.68
2022-08-28T09:31:44.374Z,217.38
2022-08-28T09:34:36.777Z,205.85
2022-08-28T09:37:08.359Z,233.05
2022-08-28T09:39:38.600Z,235.15
2022-08-28T09:42:33.007Z,211.25
2022-08-28T09:45:20.880Z,247.85
2022-08-28T09:47:58.207Z,259.73
2022-08-28T09:50:54.451Z,260.30
2022-08-28T09:53:22.350Z,247.77
2022-08-28T09:56:18.473Z,227.32
2022-08-28T09:58:59.691Z,213.73
2022-08-28T10:01:58.947Z,224.65
2022-08-28T10:05:05.350Z,259.87
2022-08-28T10:08:01.210Z,263.55
2022-08-28T10:10:38.546Z,253.13
2022-08-28T10:13:14.163Z,241.95
2022-08-28T10:16:09.833Z,216.30
2022-08-28T10:18:39.946Z,202.40
2022-08-28T10:21:36.075Z,201.45
2022-08-28T10:24:18.480Z,228.85
2022-08-28T10:27:16.558Z,235.25
2022-08-28T10:30:07.926Z,239.27
2022-08-28T10:33:07.925Z,221.23
2022-08-28T10:36:01.709Z,231.73
2022-08-28T10:38:53.006Z,240.77
2022-08-28T10:41:25.285Z,225.30
2022-08-28T10:44:00.642Z,231.85
2022-08-28T10:46:30.670Z,205.05
2022-08-28T10:49:08.419Z,195.30
2022-08-28T10:51:45.717Z,206.43
2022-08-28T10:54:40.975Z,222.45
2022-08-28T10:57:39.646Z,215.07
2022-08-28T11:00:14.232Z,214.87
2022-08-28T11:02:45.928Z,211.60
2022-08-28T11:05:13.072Z,234.30
2022-08-28T11:07:53.763Z,243.00
2022-08-28T11:10:45.107Z,229.98
2022-08-28T11:13:12.916Z,222.98
2022-08-28T11:15:45.837Z,230.75
2022-08-28T11:18:18.874Z,232.20
2022-08-28T11:21:09.876Z,236.20
2022-08-28T11:23:59.596Z,220.18
2022-08-28T11:26:58.392Z,229.70
2022-08-28T11:29:56.662Z,222.00
2022-08-28T11:32:32.778Z,199.18
2022-08-28T11:35:37.670Z,209.10
2022-08-28T11:38:05.485Z,221.20
2022-08-28T11:40:32.396Z,199.73
2022-08-28T11:43:20.674Z,194.18
2022-08-28T11:46:10.489Z,201.88
2022-08-28T11:48:39.330Z,181.48
2022-08-28T11:51:18.286Z,204.02
2022-08-28T11:54:09.286Z,201.13
2022-08-28T11:56:48.141Z,208.13
2022-08-28T11:59:35.461Z,207.90
2022-08-28T12:02:40.241Z,219.18
2022-08-28T12:05:09.454Z,202.10
2022-08-28T12:07:42.541Z,229.18
2022-08-28T12:10:24.680Z,230.98
2022-08-28T12:13:29.706Z,246.38
2022-08-28T12:16:07.504Z,237.80
2022-08-28T12:18:40.404Z,246.07
2022-08-28T12:21:14.522Z,245.23
2022-08-28T12:24:09.926Z,231.65
2022-08-28T12:26:47.075Z,234.02
2022-08-28T12:29:33.419Z,228.77
2022-08-28T12:32:18.902Z,229.52
2022-08-28T12:34:50.663Z,232.55
2022-08-28T12:37:50.806Z,241.18
2022-08-28T12:40:37.645Z,259.57
2022-08-28T12:43:10.459Z,245.63
2022-08-28T12:45:49.512Z,239.35
2022-08-28T12:48:34.253Z,229.57
2022-08-28T12:51:04.156Z,245.77
2022-08-28T12:53:45.351Z,235.93
2022-08-28T12:56:14.553Z,235.98
2022-08-28T12:58:42.607Z,226.73
2022-08-28T13:01:21.552Z,235.40
2022-08-28T13:03:56.762Z,224.17
2022-08-28T13:06:32.724Z,233.70
2022-08-28T13:09:27.247Z,238.40
2022-08-28T13:11:54.407Z,242.13
2022-08-28T13:14:43.060Z,208.80
2022-08-28T13:17:11.623Z,201.33
2022-08-28T13:19:39.034Z,233.27
2022-08-28T13:22:09.213Z,229.18
2022-08-28T13:24:35.954Z,246.63
2022-08-28T13:27:16.339Z,234.13
2022-08-28T13:30:02.392Z,233.02
2022-08-28T13:32:34.931Z,234.18
2022-08-28T13:35:28.307Z,240.52
2022-08-28T13:37:57.969Z,234.27
2022-08-28T13:40:58.076Z,218.50
2022-08-28T13:43:28.478Z,224.18
2022-08-28T13:45:55.451Z,243.05
2022-08-28T13:48:25.727Z,217.63
2022-08-28T13:51:05.128Z,224.57
2022-08-28T13:53:37.192Z,216.70
2022-08-28T13:56:04.958Z,250.75
2022-08-28T13:58:32.147Z,222.60
2022-08-28T14:00:59.531Z,204.18
2022-08-28T14:03:35.847Z,220.60
2022-08-28T14:06:09.079Z,223.98
2022-08-28T14:08:35.847Z,233.25
2022-08-28T14:11:04.259Z,226.57
2022-08-28T14:13:31.346Z,236.80
2022-08-28T14:15:58.507Z,221.55
2022-08-28T14:18:26.144Z,220.70
2022-08-28T14:20:52.980Z,202.77
2022-08-28T14:23:20.035Z,230.18
2022-08-28T14:25:47.556Z,221.90
2022-08-28T14:28:14.803Z,218.73
2022-08-28T14:30:46.682Z,208.02
2022-08-28T14:33:16.723Z,229.73
2022-08-28T14:35:43.627Z,214.40
2022-08-28T14:38:11.282Z,229.00
2022-08-28T14:40:40.535Z,235.18
2022-08-28T14:43:09.934Z,231.43
2022-08-28T14:45:48.126Z,213.85
2022-08-28T14:48:17.121Z,225.13
2022-08-28T14:50:46.802Z,226.70
2022-08-28T14:53:15.103Z,239.00
2022-08-28T14:55:44.884Z,241.43
2022-08-28T14:58:12.712Z,234.13
2022-08-28T15:00:42.819Z,232.50
2022-08-28T15:03:10.081Z,249.25
2022-08-28T15:05:36.849Z,222.97
2022-08-28T15:08:10.577Z,217.98
2022-08-28T15:10:38.844Z,228.50
2022-08-28T15:13:08.988Z,241.67
2022-08-28T15:15:41.185Z,224.73
2022-08-28T15:18:10.136Z,235.03
2022-08-28T15:20:42.803Z,235.95
2022-08-28T15:23:10.054Z,253.38
2022-08-28T15:25:37.814Z,228.98
2022-08-28T15:28:05.115Z,220.68
2022-08-28T15:30:32.295Z,224.93
2022-08-28T15:32:59.143Z,216.27
2022-08-28T15:35:25.959Z,222.15
2022-08-28T15:37:53.532Z,214.85
2022-08-28T15:40:39.825Z,223.43
2022-08-28T15:43:06.778Z,221.20
2022-08-28T15:45:37.822Z,215.10
2022-08-28T15:48:05.330Z,225.52
2022-08-28T15:50:32.208Z,218.47
2022-08-28T15:52:59.336Z,211.90
2022-08-28T15:55:27.261Z,229.50
2022-08-28T15:57:55.018Z,216.85
2022-08-28T16:00:22.759Z,208.10
2022-08-28T16:02:49.860Z,202.02
2022-08-28T16:05:17.290Z,211.20
2022-08-28T16:07:44.646Z,228.75
2022-08-28T16:10:13.409Z,208.40
2022-08-28T16:12:40.942Z,220.25
2022-08-28T16:15:08.773Z,219.82
2022-08-28T16:17:35.848Z,215.60
2022-08-28T16:20:06.352Z,231.27
2022-08-28T16:22:39.063Z,234.13
2022-08-28T16:25:06.840Z,223.88
2022-08-28T16:27:34.169Z,220.02
2022-08-28T16:30:01.059Z,222.00
2022-08-28T16:32:27.873Z,234.70
2022-08-28T16:34:54.600Z,220.55
2022-08-28T16:37:21.856Z,218.25
2022-08-28T16:39:54.569Z,236.05
2022-08-28T16:42:22.907Z,219.02
2022-08-28T16:44:49.826Z,228.52
2022-08-28T16:47:16.603Z,221.68
2022-08-28T16:49:43.472Z,217.02
2022-08-28T16:52:10.320Z,218.53
2022-08-28T16:54:37.242Z,218.27
2022-08-28T16:57:12.088Z,217.90
2022-08-28T16:59:38.954Z,205.57
2022-08-28T17:02:06.041Z,217.32
2022-08-28T17:04:33.491Z,222.73
2022-08-28T17:07:00.189Z,218.45
2022-08-28T17:09:27.081Z,209.57
2022-08-28T17:11:54.131Z,219.25
2022-08-28T17:14:22.007Z,230.70
2022-08-28T17:16:49.407Z,221.85
2022-08-28T17:19:16.767Z,219.40
2022-08-28T17:22:02.576Z,231.60
2022-08-28T17:24:30.939Z,215.52
2022-08-28T17:27:00.883Z,222.07
2022-08-28T17:29:30.078Z,224.05
2022-08-28T17:31:56.927Z,229.85
2022-08-28T17:34:28.098Z,195.75
2022-08-28T17:36:57.011Z,179.02
2022-08-28T17:39:25.145Z,184.30
2022-08-28T17:41:52.046Z,194.93
2022-08-28T17:44:18.909Z,198.68
2022-08-28T17:46:45.982Z,203.80
2022-08-28T17:49:12.897Z,168.23
2022-08-28T17:51:43.697Z,191.43
2022-08-28T17:54:18.215Z,216.88
2022-08-28T17:56:45.894Z,207.20
2022-08-28T17:59:13.732Z,200.45
2022-08-28T18:01:42.187Z,234.30
2022-08-28T18:04:09.281Z,227.17
2022-08-28T18:06:36.491Z,192.68
2022-08-28T18:09:05.093Z,212.77
2022-08-28T18:11:31.954Z,200.53
2022-08-28T18:13:59.729Z,209.57
2022-08-28T18:16:31.080Z,204.88
2022-08-28T18:19:00.055Z,233.50
2022-08-28T18:21:27.726Z,227.63
2022-08-28T18:23:54.610Z,203.88
2022-08-28T18:26:21.389Z,254.75
2022-08-28T18:28:49.024Z,244.07
2022-08-28T18:31:16.144Z,221.37
2022-08-28T18:33:42.990Z,225.93
2022-08-28T18:36:11.079Z,234.68
2022-08-28T18:38:38.315Z,229.32
2022-08-28T18:41:06.359Z,212.83
2022-08-28T18:43:33.310Z,230.88
2022-08-28T18:46:01.986Z,231.77
2022-08-28T18:48:29.039Z,221.00
2022-08-28T18:50:55.820Z,228.83
2022-08-28T18:53:23.858Z,219.60
2022-08-28T18:55:53.766Z,235.00
2022-08-28T18:58:23.116Z,221.77
2022-08-28T19:00:50.153Z,214.05
2022-08-28T19:03:17.482Z,215.75
2022-08-28T19:05:44.822Z,205.98
2022-08-28T19:08:12.451Z,212.48
2022-08-28T19:10:40.335Z,224.65
2022-08-28T19:13:08.161Z,204.35
2022-08-28T19:15:36.216Z,200.52
2022-08-28T19:18:05.122Z,211.82
2022-08-28T19:20:32.230Z,192.98
2022-08-28T19:22:59.535Z,212.82
2022-08-28T19:25:30.407Z,197.30
2022-08-28T19:27:59.651Z,214.32
2022-08-28T19:30:32.833Z,197.80
2022-08-28T19:33:01.018Z,197.20
2022-08-28T19:35:28.163Z,185.97
2022-08-28T19:37:55.573Z,195.18
2022-08-28T19:40:23.155Z,213.43
2022-08-28T19:42:51.226Z,193.85
2022-08-28T19:45:19.117Z,221.52
2022-08-28T19:47:47.063Z,195.10
2022-08-28T19:50:14.828Z,210.52
2022-08-28T19:52:43.214Z,191.80
2022-08-28T19:55:22.079Z,201.35
2022-08-28T19:57:49.472Z,196.52
2022-08-28T20:00:22.994Z,217.20
2022-08-28T20:02:52.164Z,210.13
2022-08-28T20:05:20.732Z,194.73
2022-08-28T20:07:48.561Z,201.65
2022-08-28T20:10:16.437Z,194.70
2022-08-28T20:12:48.780Z,230.98
2022-08-28T20:15:17.397Z,229.35
2022-08-28T20:17:49.876Z,219.93
2022-08-28T20:20:24.561Z,186.95
2022-08-28T20:22:54.901Z,210.55
2022-08-28T20:25:23.576Z,211.40
2022-08-28T20:27:50.787Z,223.75
2022-08-28T20:30:18.204Z,204.63
2022-08-28T20:32:45.107Z,212.43
2022-08-28T20:35:13.405Z,218.38
2022-08-28T20:37:44.676Z,216.90
2022-08-28T20:40:17.080Z,217.13
2022-08-28T20:42:44.675Z,206.48
2022-08-28T20:45:13.292Z,200.45
2022-08-28T20:47:40.166Z,215.05
2022-08-28T20:50:07.535Z,203.90
2022-08-28T20:52:34.678Z,226.32
2022-08-28T20:55:01.879Z,229.02
2022-08-28T20:57:30.671Z,188.27
2022-08-28T21:00:02.222Z,210.32
2022-08-28T21:02:32.352Z,221.13
2022-08-28T21:05:00.855Z,215.63
2022-08-28T21:07:28.162Z,221.63
2022-08-28T21:10:06.340Z,220.30
2022-08-28T21:12:36.291Z,228.35
2022-08-28T21:15:05.292Z,236.23
2022-08-28T21:17:32.616Z,236.37
2022-08-28T21:20:02.795Z,223.75
2022-08-28T21:22:31.551Z,224.68
2022-08-28T21:24:58.699Z,230.82
2022-08-28T21:27:25.535Z,243.93
2022-08-28T21:29:56.305Z,232.07
2022-08-28T21:32:23.569Z,228.63
2022-08-28T21:34:50.397Z,228.73
2022-08-28T21:37:17.691Z,244.95
2022-08-28T21:39:44.551Z,253.90
2022-08-28T21:42:11.899Z,253.10
2022-08-28T21:44:39.328Z,288.10
2022-08-28T21:47:07.324Z,266.05
2022-08-28T21:49:35.327Z,271.45
2022-08-28T21:52:05.876Z,280.33
2022-08-28T21:54:32.701Z,282.20
2022-08-28T21:57:00.129Z,277.58
2022-08-28T21:59:30.303Z,293.05
2022-08-28T22:02:05.769Z,269.45
2022-08-28T22:04:35.285Z,283.87
2022-08-28T22:07:02.192Z,252.38
2022-08-28T22:09:29.104Z,285.10
2022-08-28T22:11:55.839Z,287.02
2022-08-28T22:14:25.036Z,235.35
2022-08-28T22:16:52.387Z,278.35
2022-08-28T22:19:19.568Z,273.13
2022-08-28T22:22:04.920Z,284.13
2022-08-28T22:24:34.218Z,278.33
2022-08-28T22:27:01.112Z,269.93
2022-08-28T22:29:36.302Z,285.15
2022-08-28T22:32:05.363Z,280.37
2022-08-28T22:34:38.670Z,287.45
2022-08-28T22:37:06.090Z,262.77
2022-08-28T22:39:33.076Z,282.95
2022-08-28T22:42:00.134Z,290.45
2022-08-28T22:44:27.059Z,278.45
2022-08-28T22:46:54.236Z,303.50
2022-08-28T22:49:21.558Z,297.85
2022-08-28T22:51:49.259Z,227.75
2022-08-28T22:54:17.330Z,253.85
2022-08-28T22:56:44.494Z,287.85
2022-08-28T22:59:12.867Z,304.33
2022-08-28T23:01:42.381Z,291.23
2022-08-28T23:04:10.321Z,299.63
2022-08-28T23:06:40.884Z,319.35
2022-08-28T23:09:08.373Z,290.77
2022-08-28T23:11:36.393Z,300.02
2022-08-28T23:14:04.795Z,319.23
2022-08-28T23:16:33.479Z,296.08
2022-08-28T23:19:13.162Z,249.93
2022-08-28T23:21:43.982Z,301.10
2022-08-28T23:24:16.022Z,294.63
2022-08-28T23:26:44.553Z,311.30
2022-08-28T23:29:12.619Z,304.40
2022-08-28T23:31:39.585Z,292.23
2022-08-28T23:34:06.894Z,296.13
2022-08-28T23:36:35.674Z,290.27
2022-08-28T23:39:03.252Z,283.73
2022-08-28T23:41:30.979Z,286.58
2022-08-28T23:43:58.387Z,308.17
2022-08-28T23:46:25.331Z,247.65
2022-08-28T23:48:53.025Z,312.05
2022-08-28T23:51:21.542Z,286.93
2022-08-28T23:53:49.211Z,302.47
2022-08-28T23:56:17.193Z,313.27
2022-08-28T23:58:45.551Z,280.60
